Latest Weather Observations for Sydney Harbour

IDN60801

Issued at 2:02 am EST Friday 26 May 2017 (issued every 30 minutes, with the page automatically refreshed every 10 minutes)

About weather observations | Map of weather stations | Latest weather observations for NSW | Other Formats
Station Details ID: 066196 Name: WEDDING CAKE WEST Lat: -33.84 Lon: 151.26 Height: 6.0 m
Data from the previous 72 hours. | See also: Recent months at Sydney Harbour
Date/Time
EST
Temp
°C
App
Temp
°C
Dew
Point
°C
Rel
Hum
%
Delta-T
°C
Wind Press
QNH
hPa
Press
MSL
hPa
Rain since
9am
mm
Dir  Spd
km/h
Gust
km/h
Spd
kts
Gust
kts
26/02:00am 13.8 - - - - W 13 17 7 9 - - -
26/01:30am 14.5 - - - - WNW 11 15 6 8 - - -
26/01:00am 14.6 - - - - WNW 7 11 4 6 - - -
26/12:30am 14.9 - - - - WNW 6 9 3 5 - - -
26/12:00am 14.6 - - - - WNW 7 11 4 6 - - -
 
Date/Time
EST
Temp
°C
App
Temp
°C
Dew
Point
°C
Rel
Hum
%
Delta-T
°C
Wind Press
QNH
hPa
Press
MSL
hPa
Rain since
9am
mm
Dir  Spd
km/h
Gust
km/h
Spd
kts
Gust
kts
25/11:30pm 15.6 - - - - N 9 13 5 7 - - -
25/11:00pm 16.3 - - - - N 11 13 6 7 - - -
25/10:30pm 16.1 - - - - NNW 11 15 6 8 - - -
25/10:00pm 16.6 - - - - NNW 17 20 9 11 - - -
25/09:30pm 16.1 - - - - ESE 11 15 6 8 - - -
25/09:00pm 16.1 - - - - ESE 13 15 7 8 - - -
25/08:30pm 16.3 - - - - ESE 13 15 7 8 - - -
25/08:00pm 16.7 - - - - ESE 11 13 6 7 - - -
25/07:30pm 16.7 - - - - ESE 9 11 5 6 - - -
25/07:00pm 16.9 - - - - ESE 9 9 5 5 - - -
25/06:30pm 17.2 - - - - ESE 7 9 4 5 - - -
25/06:00pm 17.3 - - - - ESE 9 11 5 6 - - -
25/05:30pm 18.0 - - - - ESE 11 13 6 7 - - -
25/05:00pm 18.0 - - - - ESE 11 11 6 6 - - -
25/04:30pm 18.0 - - - - ESE 9 13 5 7 - - -
25/04:00pm 19.1 - - - - ESE 9 13 5 7 - - -
25/03:30pm 19.6 - - - - ESE 9 11 5 6 - - -
25/03:00pm 19.8 - - - - ESE 9 13 5 7 - - -
25/02:30pm 19.7 - - - - ESE 11 17 6 9 - - -
25/02:00pm 19.3 - - - - ESE 13 17 7 9 - - -
25/01:30pm 18.6 - - - - W 6 9 3 5 - - -
25/01:00pm 18.1 - - - - W 9 11 5 6 - - -
25/12:30pm 17.8 - - - - W 7 11 4 6 - - -
25/12:00pm 17.4 - - - - W 13 17 7 9 - - -
25/11:30am 17.0 - - - - WSW 15 19 8 10 - - -
25/11:00am 16.2 - - - - W 20 26 11 14 - - -
25/10:30am 15.9 - - - - WSW 20 26 11 14 - - -
25/10:00am 15.2 - - - - WSW 24 28 13 15 - - -
25/09:30am 14.7 - - - - W 26 32 14 17 - - -
25/09:00am 14.2 - - - - W 26 32 14 17 - - -
25/08:30am 13.6 - - - - WSW 28 33 15 18 - - -
25/08:00am 13.6 - - - - WSW 28 35 15 19 - - -
25/07:30am 13.3 - - - - WSW 30 35 16 19 - - -
25/07:00am 13.6 - - - - W 28 35 15 19 - - -
25/06:30am 13.7 - - - - WSW 26 32 14 17 - - -
25/06:00am 13.6 - - - - W 26 32 14 17 - - -
25/05:30am 13.7 - - - - W 19 24 10 13 - - -
25/05:00am 13.9 - - - - W 20 26 11 14 - - -
25/04:30am 14.1 - - - - WSW 22 30 12 16 - - -
25/04:00am 14.1 - - - - W 20 26 11 14 - - -
25/03:30am 14.4 - - - - W 22 30 12 16 - - -
25/03:00am 14.6 - - - - WSW 19 28 10 15 - - -
25/02:30am 14.8 - - - - WSW 20 28 11 15 - - -
25/02:00am 15.0 - - - - WSW 22 28 12 15 - - -
25/01:30am 15.3 - - - - WSW 22 28 12 15 - - -
25/01:00am 15.5 - - - - WSW 20 26 11 14 - - -
25/12:30am 15.8 - - - - WSW 22 30 12 16 - - -
25/12:00am 16.0 - - - - WSW 24 32 13 17 - - -
 
Date/Time
EST
Temp
°C
App
Temp
°C
Dew
Point
°C
Rel
Hum
%
Delta-T
°C
Wind Press
QNH
hPa
Press
MSL
hPa
Rain since
9am
mm
Dir  Spd
km/h
Gust
km/h
Spd
kts
Gust
kts
24/11:30pm 16.2 - - - - W 24 33 13 18 - - -
24/11:00pm 16.3 - - - - W 24 35 13 19 - - -
24/10:30pm 16.6 - - - - W 26 39 14 21 - - -
24/10:00pm 16.8 - - - - W 26 35 14 19 - - -
24/09:30pm 17.2 - - - - W 28 35 15 19 - - -
24/09:00pm 17.3 - - - - W 26 32 14 17 - - -
24/08:30pm 17.5 - - - - W 24 32 13 17 - - -
24/08:00pm 17.8 - - - - W 20 28 11 15 - - -
24/07:30pm 18.1 - - - - WSW 22 32 12 17 - - -
24/07:00pm 18.5 - - - - W 22 32 12 17 - - -
24/06:30pm 18.8 - - - - WSW 30 41 16 22 - - -
24/06:00pm 19.3 - - - - WSW 35 52 19 28 - - -
24/05:30pm 19.6 - - - - WSW 39 56 21 30 - - -
24/05:21pm 19.7 - - - - WSW 33 52 18 28 - - -
24/05:00pm 20.0 - - - - WSW 35 48 19 26 - - -
24/04:30pm 20.4 - - - - SW 39 54 21 29 - - -
24/04:11pm 20.8 - - - - SW 35 57 19 31 - - -
24/04:00pm 20.9 - - - - SW 35 46 19 25 - - -
24/03:30pm 21.1 - - - - WSW 32 41 17 22 - - -
24/03:00pm 21.4 - - - - WSW 30 41 16 22 - - -
24/02:30pm 21.5 - - - - WSW 30 44 16 24 - - -
24/02:00pm 21.4 - - - - WSW 30 41 16 22 - - -
24/01:30pm 21.6 - - - - W 33 48 18 26 - - -
24/01:00pm 21.2 - - - - W 20 30 11 16 - - -
24/12:30pm 20.0 - - - - WSW 19 22 10 12 - - -
24/12:00pm 19.5 - - - - WSW 20 24 11 13 - - -
24/11:30am 19.5 - - - - SW 17 20 9 11 - - -
24/11:00am 20.1 - - - - N 9 15 5 8 - - -
24/10:30am 19.8 - - - - N 9 13 5 7 - - -
24/10:00am 19.2 - - - - N 11 13 6 7 - - -
24/09:30am 18.5 - - - - NNW 9 13 5 7 - - -
24/09:00am 17.8 - - - - N 13 17 7 9 - - -
24/08:30am 16.6 - - - - N 15 19 8 10 - - -
24/08:00am 16.7 - - - - NNW 7 11 4 6 - - -
24/07:30am 16.5 - - - - NNW 7 11 4 6 - - -
24/07:00am 16.1 - - - - W 9 11 5 6 - - -
24/06:30am 16.7 - - - - W 7 11 4 6 - - -
24/06:00am 16.3 - - - - W 9 13 5 7 - - -
24/05:30am 16.4 - - - - W 4 11 2 6 - - -
24/05:00am 16.7 - - - - WSW 22 28 12 15 - - -
24/04:43am 16.9 - - - - WSW 22 32 12 17 - - -
24/04:30am 16.4 - - - - WSW 41 59 22 32 - - -
24/04:23am 16.2 - - - - WSW 26 59 14 32 - - -
24/04:00am 16.0 - - - - NNW 6 7 3 4 - - -
24/03:30am 16.8 - - - - NNW 4 7 2 4 - - -
24/03:00am 16.5 - - - - NNW 7 9 4 5 - - -
24/02:30am 16.6 - - - - NNW 7 9 4 5 - - -
24/02:00am 17.0 - - - - NNW 2 6 1 3 - - -
24/01:30am 17.5 - - - - NNW 7 9 4 5 - - -
24/01:00am 17.6 - - - - NNW 9 11 5 6 - - -
24/12:30am 17.7 - - - - NNW 11 13 6 7 - - -
24/12:00am 18.2 - - - - NNW 11 17 6 9 - - -
 
Date/Time
EST
Temp
°C
App
Temp
°C
Dew
Point
°C
Rel
Hum
%
Delta-T
°C
Wind Press
QNH
hPa
Press
MSL
hPa
Rain since
9am
mm
Dir  Spd
km/h
Gust
km/h
Spd
kts
Gust
kts
23/11:30pm 18.6 - - - - N 13 20 7 11 - - -
23/11:00pm 18.8 - - - - NNW 19 22 10 12 - - -
23/10:30pm 18.6 - - - - N 13 20 7 11 - - -
23/10:00pm 18.7 - - - - N 15 17 8 9 - - -
23/09:30pm 19.0 - - - - N 13 20 7 11 - - -
23/09:00pm 19.0 - - - - N 9 15 5 8 - - -
23/08:30pm 19.5 - - - - N 9 15 5 8 - - -
23/08:00pm 19.6 - - - - N 11 15 6 8 - - -
23/07:30pm 20.0 - - - - N 13 19 7 10 - - -
23/07:00pm 19.9 - - - - N 13 17 7 9 - - -
23/06:30pm 19.8 - - - - N 11 13 6 7 - - -
23/06:00pm 20.1 - - - - N 11 13 6 7 - - -
23/05:30pm 20.2 - - - - N 17 20 9 11 - - -
23/05:00pm 20.3 - - - - NNE 20 24 11 13 - - -
23/04:30pm 20.4 - - - - NNE 20 24 11 13 - - -
23/04:00pm 20.4 - - - - NNE 24 26 13 14 - - -
23/03:30pm 20.3 - - - - NNE 22 28 12 15 - - -
23/03:00pm 20.2 - - - - NNE 20 24 11 13 - - -
23/02:30pm 19.9 - - - - NNE 24 26 13 14 - - -
23/02:00pm 19.9 - - - - NNE 22 26 12 14 - - -
23/01:30pm 19.9 - - - - NNE 20 24 11 13 - - -
23/01:00pm 20.0 - - - - NE 20 24 11 13 - - -
23/12:30pm 20.0 - - - - NE 17 20 9 11 - - -
23/12:00pm 20.0 - - - - NNE 19 20 10 11 - - -
23/11:30am 20.0 - - - - NE 11 19 6 10 - - -
23/11:00am 20.2 - - - - NE 7 9 4 5 - - -
23/10:30am 18.8 - - - - NE 9 9 5 5 - - -
23/10:00am 19.9 - - - - NE 4 7 2 4 - - -
23/09:30am 19.4 - - - - CALM 0 0 0 0 - - -
23/09:00am 17.7 - - - - NE 9 13 5 7 - - -
23/08:30am 17.2 - - - - NE 9 13 5 7 - - -
23/08:00am 16.9 - - - - NE 11 13 6 7 - - -
23/07:30am 16.6 - - - - NE 7 9 4 5 - - -
23/07:00am 16.5 - - - - NE 11 13 6 7 - - -
23/06:30am 16.7 - - - - NE 9 11 5 6 - - -
23/06:00am 16.7 - - - - NE 7 9 4 5 - - -
23/05:30am 16.8 - - - - NE 9 11 5 6 - - -
23/05:00am 17.0 - - - - NE 6 7 3 4 - - -
23/04:30am 16.8 - - - - CALM 0 0 0 0 - - -
23/04:00am 16.9 - - - - NE 2 6 1 3 - - -
23/03:30am 17.2 - - - - NE 9 11 5 6 - - -
23/03:00am 17.0 - - - - NE 7 9 4 5 - - -
23/02:30am 16.9 - - - - NE 7 9 4 5 - - -

Other Formats:

Comma delimited format used in spreadsheet applications
http://www.bom.gov.au/fwo/IDN60801/IDN60801.95766.axf

JavaScript Object Notation format (JSON) in row-major order
http://www.bom.gov.au/fwo/IDN60801/IDN60801.95766.json